Albion, Rhode Island
Current Conditions -  °F | °C
As of 4:35 PM on Wednesday 26 Nov 2014 (Local Time) from KSFZ Reporting Station
Overcast Overcast  
Wind Chill: 23°   Ceiling: 500
Heat Index: 34°   Visibility: 5mi
Dew Point: 27°   Wind: 18mph
Humidity: 75%   Direction: 30°NNE
Pressure: 29.83"   Gusts: 25mph
Location:  41.95°N, 71.45°W
Report Text: KSFZ 262135Z 03016G22KT 5SM OVC005 01/M03 A2983 RMK AO1 P0011
Loading
Personal Weather Stations






























Interactive Weather Map New forecast layout! Learn more

10-Day Weather Forecast

Advertisements
Track Severe Weather on mobile